Terminal Aerodrome Forecast
Issued by NWS

Home | Current Version | Previous Version | Text Only | Print | Product List | Glossary On
Versions: 1 2 3 4 5 6 7 8 9 10 11 12 13 14 15
000
FTUS45 KABQ 281737
TAFTCC
TAF
KTCC 281737Z 2818/2918 VRB05KT P6SM SKC
     FM282030 20010G17KT P6SM FEW110
     FM290200 16007KT P6SM SKC
     FM291300 16007KT P6SM SCT014=

USA.gov is the U.S. government's official web portal to all federal, state and local government web resources and services.